createdAt,value
2023-01-06T00:01:06.730Z,21.85
2023-01-06T00:03:33.902Z,23.48
2023-01-06T00:06:02.955Z,22.92
2023-01-06T00:08:30.404Z,24.08
2023-01-06T00:10:59.654Z,25.40
2023-01-06T00:13:27.038Z,24.92
2023-01-06T00:15:55.837Z,24.40
2023-01-06T00:18:22.992Z,24.60
2023-01-06T00:20:50.481Z,27.38
2023-01-06T00:23:17.617Z,28.23
2023-01-06T00:25:51.375Z,26.00
2023-01-06T00:28:18.583Z,24.00
2023-01-06T00:30:45.698Z,27.75
2023-01-06T00:33:13.216Z,27.30
2023-01-06T00:35:41.558Z,26.30
2023-01-06T00:38:08.929Z,24.42
2023-01-06T00:40:36.494Z,27.33
2023-01-06T00:43:03.788Z,27.60
2023-01-06T00:45:31.024Z,26.80
2023-01-06T00:47:58.140Z,24.90
2023-01-06T00:50:25.357Z,27.13
2023-01-06T00:52:52.524Z,26.05
2023-01-06T00:55:19.779Z,23.52
2023-01-06T00:57:47.527Z,21.15
2023-01-06T01:00:14.798Z,20.33
2023-01-06T01:02:42.112Z,18.33
2023-01-06T01:05:10.409Z,17.48
2023-01-06T01:07:37.605Z,18.02
2023-01-06T01:10:04.916Z,18.00
2023-01-06T01:12:32.135Z,18.92
2023-01-06T01:14:59.183Z,17.67
2023-01-06T01:17:28.491Z,18.95
2023-01-06T01:19:58.043Z,21.05
2023-01-06T01:22:29.249Z,21.17
2023-01-06T01:24:56.586Z,22.15
2023-01-06T01:27:23.886Z,20.60
2023-01-06T01:29:52.831Z,23.05
2023-01-06T01:32:20.111Z,23.88
2023-01-06T01:34:47.160Z,22.13
2023-01-06T01:37:14.530Z,22.10
2023-01-06T01:39:42.231Z,21.77
2023-01-06T01:42:16.127Z,20.10
2023-01-06T01:44:52.501Z,21.10
2023-01-06T01:47:40.035Z,19.65
2023-01-06T01:50:18.671Z,20.52
2023-01-06T01:52:47.522Z,20.95
2023-01-06T01:55:15.301Z,20.70
2023-01-06T01:57:45.673Z,20.00
2023-01-06T02:00:12.965Z,20.70
2023-01-06T02:02:41.018Z,19.15
2023-01-06T02:05:08.422Z,20.95
2023-01-06T02:07:35.548Z,20.52
2023-01-06T02:10:08.875Z,20.20
2023-01-06T02:12:36.185Z,20.73
2023-01-06T02:15:03.507Z,20.38
2023-01-06T02:17:36.687Z,20.83
2023-01-06T02:20:29.775Z,23.15
2023-01-06T02:23:07.899Z,22.48
2023-01-06T02:25:45.214Z,21.80
2023-01-06T02:28:34.870Z,21.73
2023-01-06T02:31:22.048Z,22.45
2023-01-06T02:34:15.636Z,22.10
2023-01-06T02:37:01.529Z,21.42
2023-01-06T02:39:32.404Z,24.05
2023-01-06T02:42:08.591Z,22.80
2023-01-06T02:44:57.816Z,21.63
2023-01-06T02:47:37.867Z,22.00
2023-01-06T02:50:12.444Z,21.15
2023-01-06T02:52:58.281Z,21.08
2023-01-06T02:55:37.716Z,20.02
2023-01-06T02:58:17.176Z,21.20
2023-01-06T03:00:48.437Z,21.38
2023-01-06T03:03:20.074Z,24.25
2023-01-06T03:05:51.472Z,23.95
2023-01-06T03:08:21.662Z,22.77
2023-01-06T03:10:49.782Z,22.42
2023-01-06T03:13:35.969Z,22.38
2023-01-06T03:16:04.682Z,19.88
2023-01-06T03:18:32.893Z,19.40
2023-01-06T03:21:04.819Z,18.45
2023-01-06T03:23:32.487Z,18.83
2023-01-06T03:25:59.695Z,18.92
2023-01-06T03:28:27.499Z,18.25
2023-01-06T03:31:01.587Z,22.45
2023-01-06T03:33:28.912Z,22.95
2023-01-06T03:36:20.660Z,24.55
2023-01-06T03:38:53.576Z,23.58
2023-01-06T03:41:52.605Z,23.40
2023-01-06T03:44:26.244Z,22.77
2023-01-06T03:46:56.277Z,22.17
2023-01-06T03:49:31.588Z,21.35
2023-01-06T03:52:28.550Z,20.95
2023-01-06T03:55:14.783Z,19.27
2023-01-06T03:57:44.559Z,21.45
2023-01-06T04:00:15.993Z,21.70
2023-01-06T04:02:51.851Z,20.90
2023-01-06T04:05:24.684Z,20.17
2023-01-06T04:07:52.455Z,20.45
2023-01-06T04:10:21.746Z,18.98
2023-01-06T04:12:51.829Z,17.60
2023-01-06T04:15:26.541Z,17.02
2023-01-06T04:17:55.469Z,16.85
2023-01-06T04:20:27.264Z,15.57
2023-01-06T04:23:14.625Z,14.90
2023-01-06T04:25:44.843Z,15.27
2023-01-06T04:28:25.251Z,17.80
2023-01-06T04:30:53.092Z,18.40
2023-01-06T04:33:20.305Z,18.80
2023-01-06T04:35:49.319Z,19.83
2023-01-06T04:38:19.362Z,19.02
2023-01-06T04:40:46.563Z,20.50
2023-01-06T04:43:18.306Z,20.08
2023-01-06T04:45:45.431Z,19.30
2023-01-06T04:48:13.156Z,19.55
2023-01-06T04:50:40.360Z,18.13
2023-01-06T04:53:07.872Z,19.25
2023-01-06T04:55:37.847Z,20.42
2023-01-06T04:58:05.304Z,21.38
2023-01-06T05:00:32.331Z,19.65
2023-01-06T05:02:59.413Z,19.42
2023-01-06T05:05:26.503Z,20.60
2023-01-06T05:07:54.269Z,21.27
2023-01-06T05:10:23.528Z,20.80
2023-01-06T05:12:50.660Z,19.77
2023-01-06T05:15:17.942Z,20.52
2023-01-06T05:17:45.230Z,21.10
2023-01-06T05:20:12.421Z,20.73
2023-01-06T05:22:39.753Z,22.25
2023-01-06T05:25:07.358Z,22.88
2023-01-06T05:27:34.587Z,22.10
2023-01-06T05:30:01.869Z,21.40
2023-01-06T05:32:29.059Z,19.70
2023-01-06T05:34:58.537Z,19.17
2023-01-06T05:37:27.892Z,19.30
2023-01-06T05:39:54.921Z,19.08
2023-01-06T05:42:22.111Z,19.02
2023-01-06T05:44:49.220Z,18.48
2023-01-06T05:47:16.374Z,17.83
2023-01-06T05:49:43.589Z,18.27
2023-01-06T05:52:10.689Z,16.98
2023-01-06T05:54:37.730Z,17.45
2023-01-06T05:57:07.372Z,17.58
2023-01-06T05:59:34.416Z,16.80
2023-01-06T06:02:01.630Z,16.85
2023-01-06T06:04:28.737Z,17.95
2023-01-06T06:06:57.036Z,17.73
2023-01-06T06:09:24.198Z,17.60
2023-01-06T06:11:52.196Z,18.42
2023-01-06T06:14:19.420Z,17.33
2023-01-06T06:16:46.693Z,16.27
2023-01-06T06:19:15.076Z,18.33
2023-01-06T06:21:42.167Z,19.27
2023-01-06T06:24:09.353Z,18.48
2023-01-06T06:26:36.439Z,19.50
2023-01-06T06:29:05.541Z,21.48
2023-01-06T06:31:32.742Z,21.20
2023-01-06T06:34:01.246Z,21.45
2023-01-06T06:36:28.782Z,24.08
2023-01-06T06:38:56.086Z,24.35
2023-01-06T06:41:23.955Z,26.50
2023-01-06T06:43:51.673Z,29.27
2023-01-06T06:46:21.517Z,29.92
2023-01-06T06:48:50.537Z,29.10
2023-01-06T06:51:19.443Z,28.15
2023-01-06T06:53:46.690Z,27.25
2023-01-06T06:56:14.725Z,28.23
2023-01-06T06:58:42.377Z,25.83
2023-01-06T07:01:11.104Z,25.50
2023-01-06T07:03:38.915Z,24.08
2023-01-06T07:06:07.669Z,20.48
2023-01-06T07:08:34.878Z,20.40
2023-01-06T07:11:02.649Z,19.55
2023-01-06T07:13:29.748Z,17.25
2023-01-06T07:15:57.014Z,16.48
2023-01-06T07:18:24.213Z,15.88
2023-01-06T07:20:53.807Z,15.82
2023-01-06T07:23:21.640Z,15.90
2023-01-06T07:25:52.882Z,17.92
2023-01-06T07:28:20.127Z,16.60
2023-01-06T07:30:47.654Z,17.73
2023-01-06T07:33:15.048Z,17.15
2023-01-06T07:35:42.087Z,23.90
2023-01-06T07:38:10.186Z,22.75
2023-01-06T07:40:37.518Z,21.73
2023-01-06T07:43:05.894Z,20.55
2023-01-06T07:45:33.267Z,20.75
2023-01-06T07:48:00.836Z,21.15
2023-01-06T07:50:28.489Z,20.05
2023-01-06T07:52:58.266Z,18.95
2023-01-06T07:55:25.767Z,15.85
2023-01-06T07:57:53.121Z,13.90
2023-01-06T08:00:20.434Z,12.55
2023-01-06T08:02:47.706Z,13.57
2023-01-06T08:05:14.885Z,13.25
2023-01-06T08:07:42.092Z,14.80
2023-01-06T08:10:09.343Z,14.13
2023-01-06T08:12:37.443Z,14.73
2023-01-06T08:15:04.880Z,14.43
2023-01-06T08:17:32.127Z,13.52
2023-01-06T08:19:59.227Z,17.23
2023-01-06T08:22:26.457Z,23.65
2023-01-06T08:24:53.727Z,26.90
2023-01-06T08:27:21.044Z,30.20
2023-01-06T08:29:50.325Z,34.60
2023-01-06T08:32:17.590Z,32.55
2023-01-06T08:34:44.771Z,30.05
2023-01-06T08:37:12.047Z,27.67
2023-01-06T08:39:39.150Z,30.48
2023-01-06T08:42:06.358Z,28.33
2023-01-06T08:44:33.484Z,28.23
2023-01-06T08:47:00.683Z,24.52
2023-01-06T08:49:27.942Z,22.92
2023-01-06T08:51:55.154Z,22.65
2023-01-06T08:54:22.267Z,23.73
2023-01-06T08:56:49.401Z,21.35
2023-01-06T08:59:18.433Z,23.38
2023-01-06T09:01:45.818Z,20.27
2023-01-06T09:04:13.273Z,24.17
2023-01-06T09:06:42.496Z,21.35
2023-01-06T09:09:10.047Z,21.55
2023-01-06T09:11:37.612Z,20.77
2023-01-06T09:14:04.743Z,20.80
2023-01-06T09:16:31.969Z,21.45
2023-01-06T09:18:59.225Z,21.75
2023-01-06T09:21:26.502Z,23.20
2023-01-06T09:23:53.752Z,23.65
2023-01-06T09:26:22.200Z,26.58
2023-01-06T09:28:49.544Z,19.92
2023-01-06T09:31:18.446Z,20.42
2023-01-06T09:33:45.747Z,20.42
2023-01-06T09:36:12.796Z,22.25
2023-01-06T09:38:40.097Z,19.00
2023-01-06T09:41:22.237Z,21.33
2023-01-06T09:43:49.408Z,22.33
2023-01-06T09:46:18.451Z,20.90
2023-01-06T09:49:11.880Z,21.55
2023-01-06T09:51:39.297Z,21.90
2023-01-06T09:54:13.495Z,18.85
2023-01-06T09:56:44.960Z,18.25
2023-01-06T09:59:15.167Z,16.33
2023-01-06T10:01:45.649Z,17.20
2023-01-06T10:04:39.044Z,15.57
2023-01-06T10:07:29.534Z,14.73
2023-01-06T10:10:16.950Z,12.30
2023-01-06T10:12:48.695Z,12.63
2023-01-06T10:15:15.982Z,13.20
2023-01-06T10:17:43.284Z,12.30
2023-01-06T10:20:30.805Z,12.70
2023-01-06T10:23:05.328Z,12.60
2023-01-06T10:25:38.004Z,12.55
2023-01-06T10:28:19.869Z,13.15
2023-01-06T10:30:50.589Z,13.43
2023-01-06T10:33:20.770Z,13.35
2023-01-06T10:35:50.429Z,12.38
2023-01-06T10:38:18.850Z,12.48
2023-01-06T10:40:46.039Z,13.07
2023-01-06T10:43:13.982Z,12.38
2023-01-06T10:45:44.768Z,11.02
2023-01-06T10:48:23.035Z,11.80
2023-01-06T10:50:50.249Z,11.43
2023-01-06T10:53:17.514Z,11.20
2023-01-06T10:55:44.600Z,11.30
2023-01-06T10:58:23.717Z,11.70
2023-01-06T11:00:58.443Z,10.48
2023-01-06T11:03:33.273Z,11.63
2023-01-06T11:06:03.885Z,11.88
2023-01-06T11:08:31.264Z,11.23
2023-01-06T11:10:58.894Z,9.55
2023-01-06T11:13:28.744Z,8.13
2023-01-06T11:15:57.625Z,9.40
2023-01-06T11:18:29.568Z,7.25
2023-01-06T11:21:06.008Z,9.27
2023-01-06T11:23:33.184Z,10.82
2023-01-06T11:26:28.374Z,11.05
2023-01-06T11:28:55.808Z,11.85
2023-01-06T11:31:26.172Z,11.85
2023-01-06T11:33:55.461Z,10.80
2023-01-06T11:36:32.908Z,10.32
2023-01-06T11:39:01.992Z,11.75
2023-01-06T11:41:33.887Z,10.15
2023-01-06T11:44:12.806Z,10.70
2023-01-06T11:46:46.154Z,8.90
2023-01-06T11:49:16.967Z,9.70
2023-01-06T11:51:44.387Z,12.00
2023-01-06T11:54:25.891Z,11.88
2023-01-06T11:57:11.544Z,11.57
2023-01-06T12:00:06.051Z,9.40
2023-01-06T12:02:57.130Z,8.88
2023-01-06T12:05:53.679Z,10.15
2023-01-06T12:08:20.985Z,10.77
2023-01-06T12:10:50.867Z,11.52
2023-01-06T12:13:18.142Z,12.68
2023-01-06T12:15:47.353Z,12.70
2023-01-06T12:18:17.194Z,11.55
2023-01-06T12:20:46.936Z,10.50
2023-01-06T12:23:23.054Z,11.02
2023-01-06T12:25:51.626Z,11.88
2023-01-06T12:28:21.848Z,11.02
2023-01-06T12:30:51.326Z,10.77
2023-01-06T12:33:38.851Z,9.98
2023-01-06T12:36:12.723Z,8.50
2023-01-06T12:39:02.222Z,7.60
2023-01-06T12:41:38.352Z,7.55
2023-01-06T12:44:24.193Z,7.35
2023-01-06T12:46:57.042Z,7.75
2023-01-06T12:49:33.478Z,7.47
2023-01-06T12:52:04.210Z,7.53
2023-01-06T12:54:32.822Z,8.30
2023-01-06T12:57:05.305Z,8.00
2023-01-06T12:59:45.745Z,8.45
2023-01-06T13:02:31.835Z,8.52
2023-01-06T13:05:17.230Z,9.15
2023-01-06T13:08:03.193Z,11.25
2023-01-06T13:13:11.417Z,13.02
2023-01-06T13:15:40.938Z,12.70
2023-01-06T13:18:10.991Z,13.82
2023-01-06T13:20:43.925Z,14.48
2023-01-06T13:23:29.734Z,14.70
2023-01-06T13:26:06.415Z,17.00
2023-01-06T13:28:48.333Z,17.23
2023-01-06T13:31:33.342Z,17.30
2023-01-06T13:34:15.483Z,15.10
2023-01-06T13:36:54.682Z,15.35
2023-01-06T13:39:34.324Z,15.80
2023-01-06T13:42:03.159Z,11.40
2023-01-06T13:44:32.346Z,11.35
2023-01-06T13:47:04.764Z,12.80
2023-01-06T13:49:32.117Z,12.38
2023-01-06T13:52:00.679Z,12.45
2023-01-06T13:54:39.752Z,14.10
2023-01-06T13:57:21.848Z,13.57
2023-01-06T13:59:49.108Z,14.80
2023-01-06T14:02:34.597Z,13.93
2023-01-06T14:05:24.776Z,15.48
2023-01-06T14:07:53.292Z,14.57
2023-01-06T14:10:36.177Z,14.60
2023-01-06T14:13:05.033Z,15.95
2023-01-06T14:15:33.237Z,16.00
2023-01-06T14:18:01.147Z,15.85
2023-01-06T14:20:32.801Z,14.88
2023-01-06T14:23:01.158Z,14.98
2023-01-06T14:25:28.911Z,14.85
2023-01-06T14:27:59.065Z,15.10
2023-01-06T14:30:30.733Z,15.98
2023-01-06T14:33:01.629Z,15.32
2023-01-06T14:35:35.807Z,15.65
2023-01-06T14:38:04.831Z,15.70
2023-01-06T14:40:48.668Z,15.80
2023-01-06T14:43:34.952Z,16.27
2023-01-06T14:46:28.460Z,16.48
2023-01-06T14:49:06.347Z,17.02
2023-01-06T14:51:34.805Z,18.25
2023-01-06T14:54:04.673Z,19.13
2023-01-06T14:56:33.283Z,15.90
2023-01-06T14:59:14.160Z,15.45
2023-01-06T15:01:43.147Z,15.52
2023-01-06T15:04:24.680Z,17.20
2023-01-06T15:07:02.859Z,16.23
2023-01-06T15:09:30.179Z,17.33
2023-01-06T15:11:57.520Z,16.65
2023-01-06T15:14:29.401Z,14.65
2023-01-06T15:16:57.709Z,15.32
2023-01-06T15:19:25.050Z,16.63
2023-01-06T15:21:52.680Z,14.98
2023-01-06T15:24:21.783Z,14.95
2023-01-06T15:26:49.874Z,17.17
2023-01-06T15:29:18.476Z,15.93
2023-01-06T15:31:46.140Z,18.75
2023-01-06T15:34:15.246Z,17.58
2023-01-06T15:36:43.412Z,19.10
2023-01-06T15:39:15.427Z,20.33
2023-01-06T15:41:43.665Z,18.90
2023-01-06T15:44:37.008Z,19.15
2023-01-06T15:47:13.268Z,20.13
2023-01-06T15:49:43.176Z,20.33
2023-01-06T15:52:27.039Z,20.02
2023-01-06T15:54:56.089Z,24.63
2023-01-06T15:57:24.051Z,26.13
2023-01-06T16:00:02.068Z,28.63
2023-01-06T16:02:32.358Z,34.35
2023-01-06T16:05:00.858Z,38.00
2023-01-06T16:07:41.992Z,39.22
2023-01-06T16:10:32.456Z,43.42
2023-01-06T16:13:05.873Z,42.53
2023-01-06T16:15:44.943Z,46.22
2023-01-06T16:18:13.243Z,44.22
2023-01-06T16:20:40.414Z,42.83
2023-01-06T16:23:07.531Z,44.28
2023-01-06T16:25:35.703Z,42.97
2023-01-06T16:28:04.666Z,43.60
2023-01-06T16:30:36.847Z,42.40
2023-01-06T16:33:04.787Z,40.95
2023-01-06T16:35:33.433Z,42.90
2023-01-06T16:38:00.863Z,42.95
2023-01-06T16:40:29.100Z,36.47
2023-01-06T16:43:00.691Z,37.97
2023-01-06T16:45:44.539Z,37.22
2023-01-06T16:48:15.432Z,32.10
2023-01-06T16:50:45.168Z,32.15
2023-01-06T16:53:14.404Z,32.70
2023-01-06T16:55:42.292Z,31.92
2023-01-06T16:58:15.770Z,31.63
2023-01-06T17:00:48.324Z,30.27
2023-01-06T17:03:17.295Z,30.92
2023-01-06T17:05:44.655Z,30.73
2023-01-06T17:08:13.960Z,30.52
2023-01-06T17:10:41.593Z,31.23
2023-01-06T17:13:33.132Z,31.17
2023-01-06T17:16:22.294Z,31.73
2023-01-06T17:18:51.338Z,31.25
2023-01-06T17:21:20.584Z,32.90
2023-01-06T17:23:59.105Z,33.67
2023-01-06T17:26:27.163Z,33.17
2023-01-06T17:28:56.818Z,32.05
2023-01-06T17:31:26.002Z,30.70
2023-01-06T17:33:53.862Z,28.70
2023-01-06T17:36:24.769Z,28.50
2023-01-06T17:38:52.583Z,28.20
2023-01-06T17:41:19.980Z,28.30
2023-01-06T17:43:47.680Z,27.63
2023-01-06T17:46:24.616Z,27.20
2023-01-06T17:48:58.071Z,26.35
2023-01-06T17:51:25.425Z,27.10
2023-01-06T17:54:11.013Z,27.17
2023-01-06T17:56:39.531Z,25.90
2023-01-06T17:59:14.743Z,25.95
2023-01-06T18:01:42.089Z,25.95
2023-01-06T18:04:12.745Z,26.38
2023-01-06T18:06:42.118Z,25.42
2023-01-06T18:09:15.548Z,26.92
2023-01-06T18:11:46.998Z,27.20
2023-01-06T18:14:22.427Z,27.58
2023-01-06T18:16:54.492Z,24.23
2023-01-06T18:19:33.469Z,24.42
2023-01-06T18:22:02.523Z,24.75
2023-01-06T18:24:32.485Z,24.75
2023-01-06T18:27:00.649Z,24.05
2023-01-06T18:29:31.655Z,23.15
2023-01-06T18:32:16.100Z,23.60
2023-01-06T18:34:44.161Z,23.15
2023-01-06T18:37:11.340Z,22.88
2023-01-06T18:39:40.127Z,22.05
2023-01-06T18:42:22.440Z,22.13
2023-01-06T18:44:50.329Z,23.05
2023-01-06T18:47:18.853Z,23.73
2023-01-06T18:49:46.441Z,23.92
2023-01-06T18:52:32.233Z,23.90
2023-01-06T18:55:01.125Z,22.92
2023-01-06T18:57:30.316Z,23.17
2023-01-06T19:00:12.739Z,22.77
2023-01-06T19:02:39.975Z,23.80
2023-01-06T19:05:13.583Z,24.48
2023-01-06T19:07:40.930Z,25.13
2023-01-06T19:10:20.365Z,26.45
2023-01-06T19:12:47.854Z,28.95
2023-01-06T19:15:17.902Z,29.60
2023-01-06T19:17:46.158Z,24.52
2023-01-06T19:20:16.291Z,23.35
2023-01-06T19:22:43.617Z,25.70
2023-01-06T19:25:25.816Z,26.13
2023-01-06T19:27:55.791Z,25.65
2023-01-06T19:30:22.911Z,24.70
2023-01-06T19:32:50.215Z,26.63
2023-01-06T19:35:22.930Z,25.23
2023-01-06T19:38:01.669Z,26.65
2023-01-06T19:40:30.564Z,26.73
2023-01-06T19:43:17.856Z,27.33
2023-01-06T19:45:45.480Z,25.88
2023-01-06T19:48:24.838Z,28.85
2023-01-06T19:50:57.020Z,31.95
2023-01-06T19:53:44.569Z,34.92
2023-01-06T19:56:23.268Z,42.38
2023-01-06T19:58:52.518Z,44.55
2023-01-06T20:01:19.808Z,45.88
2023-01-06T20:03:47.570Z,47.80
2023-01-06T20:06:15.290Z,47.60
2023-01-06T20:08:43.337Z,50.08
2023-01-06T20:11:11.353Z,48.80
2023-01-06T20:13:38.698Z,33.38
2023-01-06T20:16:06.300Z,30.27
2023-01-06T20:18:33.533Z,31.45
2023-01-06T20:21:00.709Z,33.47
2023-01-06T20:23:27.880Z,30.10
2023-01-06T20:25:55.192Z,28.10
2023-01-06T20:28:22.453Z,29.52
2023-01-06T20:30:49.658Z,27.80
2023-01-06T20:33:17.026Z,26.88
2023-01-06T20:35:44.309Z,27.15
2023-01-06T20:38:14.651Z,29.20
2023-01-06T20:40:43.329Z,27.05
2023-01-06T20:43:11.100Z,33.70
2023-01-06T20:45:38.284Z,40.80
2023-01-06T20:48:05.549Z,46.88
2023-01-06T20:50:34.154Z,54.28
2023-01-06T20:53:01.428Z,56.65
2023-01-06T20:55:28.667Z,48.85
2023-01-06T20:57:58.724Z,55.90
2023-01-06T21:00:25.871Z,42.70
2023-01-06T21:02:53.097Z,41.42
2023-01-06T21:05:23.217Z,44.78
2023-01-06T21:07:50.319Z,41.22
2023-01-06T21:10:17.580Z,40.28
2023-01-06T21:12:44.869Z,43.50
2023-01-06T21:15:12.065Z,38.58
2023-01-06T21:17:39.353Z,39.40
2023-01-06T21:20:07.765Z,35.00
2023-01-06T21:22:34.898Z,34.08
2023-01-06T21:25:02.266Z,51.90
2023-01-06T21:27:29.438Z,56.83
2023-01-06T21:29:56.650Z,56.08
2023-01-06T21:32:23.908Z,48.22
2023-01-06T21:34:51.750Z,48.30
2023-01-06T21:37:19.001Z,53.40
2023-01-06T21:39:47.956Z,55.97
2023-01-06T21:42:34.998Z,56.40
2023-01-06T21:45:02.239Z,57.90
2023-01-06T21:47:29.365Z,58.70
2023-01-06T21:49:56.605Z,55.95
2023-01-06T21:52:23.729Z,55.45
2023-01-06T21:54:50.975Z,50.65
2023-01-06T21:57:18.116Z,50.53
2023-01-06T21:59:45.248Z,49.10
2023-01-06T22:02:14.308Z,47.30
2023-01-06T22:04:41.401Z,46.92
2023-01-06T22:07:12.097Z,45.58
2023-01-06T22:09:39.916Z,44.75
2023-01-06T22:12:07.457Z,44.60
2023-01-06T22:14:34.889Z,44.42
2023-01-06T22:17:02.369Z,42.72
2023-01-06T22:19:29.977Z,42.63
2023-01-06T22:21:58.689Z,42.55
2023-01-06T22:24:26.435Z,44.30
2023-01-06T22:26:53.679Z,42.92
2023-01-06T22:29:20.823Z,48.20
2023-01-06T22:31:48.089Z,49.15
2023-01-06T22:34:17.196Z,50.50
2023-01-06T22:36:45.376Z,55.58
2023-01-06T22:39:12.511Z,52.45
2023-01-06T22:41:39.830Z,41.15
2023-01-06T22:44:06.944Z,43.65
2023-01-06T22:46:34.293Z,32.35
2023-01-06T22:49:01.477Z,29.90
2023-01-06T22:51:28.918Z,25.63
2023-01-06T22:53:57.319Z,24.63
2023-01-06T22:56:24.787Z,23.20
2023-01-06T22:58:51.981Z,22.50
2023-01-06T23:01:19.267Z,21.65
2023-01-06T23:03:46.535Z,21.75
2023-01-06T23:06:14.274Z,21.33
2023-01-06T23:08:51.115Z,19.60
2023-01-06T23:11:28.228Z,29.95
2023-01-06T23:13:56.943Z,35.10
2023-01-06T23:16:26.893Z,35.45
2023-01-06T23:18:54.643Z,37.70
2023-01-06T23:21:23.178Z,37.25
2023-01-06T23:23:51.160Z,37.40
2023-01-06T23:26:23.845Z,34.53
2023-01-06T23:28:51.671Z,34.92
2023-01-06T23:31:20.944Z,36.05
2023-01-06T23:33:49.467Z,35.47
2023-01-06T23:36:17.464Z,35.63
2023-01-06T23:38:45.018Z,37.10
2023-01-06T23:41:13.194Z,35.30
2023-01-06T23:43:40.396Z,36.38
2023-01-06T23:46:08.722Z,24.02
2023-01-06T23:48:36.445Z,31.60
2023-01-06T23:51:04.296Z,30.20
2023-01-06T23:53:31.961Z,24.88
2023-01-06T23:56:00.531Z,26.70
2023-01-06T23:58:28.490Z,25.15
